createdAt,value
2019-05-20T00:00:16.426Z,78.15
2019-05-20T00:01:16.506Z,78.25
2019-05-20T00:02:25.862Z,78.75
2019-05-20T00:03:17.381Z,78.15
2019-05-20T00:04:16.483Z,78.65
2019-05-20T00:05:16.391Z,78.75
2019-05-20T00:06:16.355Z,78.45
2019-05-20T00:07:16.350Z,78.15
2019-05-20T00:08:16.329Z,78.65
2019-05-20T00:09:16.326Z,79.05
2019-05-20T00:10:16.391Z,78.85
2019-05-20T00:11:16.299Z,79.05
2019-05-20T00:12:16.287Z,78.75
2019-05-20T00:13:16.275Z,78.96
2019-05-20T00:14:16.271Z,78.75
2019-05-20T00:15:16.269Z,78.65
2019-05-20T00:16:16.301Z,78.65
2019-05-20T00:17:16.235Z,78.75
2019-05-20T00:18:16.276Z,78.55
2019-05-20T00:19:16.206Z,78.75
2019-05-20T00:20:16.208Z,79.05
2019-05-20T00:21:16.270Z,78.65
2019-05-20T00:22:16.179Z,78.65
2019-05-20T00:23:16.170Z,78.65
2019-05-20T00:24:16.152Z,78.85
2019-05-20T00:25:16.144Z,79.05
2019-05-20T00:26:16.161Z,78.65
2019-05-20T00:27:16.121Z,78.65
2019-05-20T00:28:16.110Z,78.79
2019-05-20T00:29:16.102Z,79.56
2019-05-20T00:30:16.095Z,78.96
2019-05-20T00:31:16.081Z,78.75
2019-05-20T00:32:16.147Z,79.39
2019-05-20T00:33:16.054Z,79.29
2019-05-20T00:34:16.048Z,79.80
2019-05-20T00:35:16.030Z,78.99
2019-05-20T00:36:16.028Z,78.79
2019-05-20T00:37:16.018Z,78.89
2019-05-20T00:38:16.084Z,78.89
2019-05-20T00:39:16.009Z,78.69
2019-05-20T00:40:15.981Z,78.59
2019-05-20T00:41:15.970Z,79.60
2019-05-20T00:42:15.960Z,78.89
2019-05-20T00:43:16.028Z,78.99
2019-05-20T00:44:15.932Z,79.09
2019-05-20T00:45:15.927Z,78.99
2019-05-20T00:46:15.910Z,78.89
2019-05-20T00:47:15.899Z,78.99
2019-05-20T00:48:15.971Z,78.49
2019-05-20T00:49:15.889Z,78.79
2019-05-20T00:50:15.870Z,78.69
2019-05-20T00:51:15.858Z,78.69
2019-05-20T00:52:15.855Z,78.49
2019-05-20T00:53:15.930Z,79.19
2019-05-20T00:54:15.835Z,78.69
2019-05-20T00:55:15.817Z,78.59
2019-05-20T00:56:15.808Z,79.39
2019-05-20T00:57:15.788Z,78.79
2019-05-20T00:58:15.777Z,79.29
2019-05-20T00:59:15.850Z,79.09
2019-05-20T01:00:15.760Z,78.59
2019-05-20T01:01:15.744Z,78.39
2019-05-20T01:02:15.734Z,78.49
2019-05-20T01:03:15.722Z,78.49
2019-05-20T01:04:15.717Z,78.59
2019-05-20T01:05:15.805Z,78.72
2019-05-20T01:06:15.691Z,79.13
2019-05-20T01:07:15.685Z,79.03
2019-05-20T01:08:15.674Z,79.09
2019-05-20T01:09:15.729Z,79.33
2019-05-20T01:10:15.644Z,79.03
2019-05-20T01:11:15.645Z,79.13
2019-05-20T01:12:15.623Z,79.13
2019-05-20T01:13:15.613Z,79.13
2019-05-20T01:14:15.606Z,79.13
2019-05-20T01:15:15.621Z,79.09
2019-05-20T01:16:15.579Z,79.23
2019-05-20T01:17:15.572Z,78.69
2019-05-20T01:18:15.564Z,78.83
2019-05-20T01:19:15.548Z,78.83
2019-05-20T01:20:15.540Z,79.23
2019-05-20T01:21:15.653Z,79.13
2019-05-20T01:22:15.522Z,79.13
2019-05-20T01:23:15.502Z,79.13
2019-05-20T01:24:15.499Z,79.73
2019-05-20T01:25:15.549Z,79.43
2019-05-20T01:26:15.553Z,79.63
2019-05-20T01:27:15.459Z,79.43
2019-05-20T01:28:15.456Z,79.53
2019-05-20T01:29:15.441Z,79.43
2019-05-20T01:30:15.431Z,79.63
2019-05-20T01:31:15.526Z,79.13
2019-05-20T01:32:15.406Z,79.13
2019-05-20T01:33:15.393Z,79.13
2019-05-20T01:34:15.393Z,79.73
2019-05-20T01:35:15.377Z,79.73
2019-05-20T01:36:15.419Z,79.53
2019-05-20T01:37:15.460Z,79.43
2019-05-20T01:38:15.340Z,79.53
2019-05-20T01:39:15.331Z,79.53
2019-05-20T01:40:15.325Z,79.33
2019-05-20T01:41:15.312Z,79.23
2019-05-20T01:42:15.296Z,79.53
2019-05-20T01:43:15.394Z,79.23
2019-05-20T01:44:15.282Z,79.13
2019-05-20T01:45:15.265Z,79.43
2019-05-20T01:46:15.249Z,79.43
2019-05-20T01:47:15.244Z,79.33
2019-05-20T01:48:15.227Z,79.33
2019-05-20T01:49:15.310Z,79.23
2019-05-20T01:50:15.215Z,79.33
2019-05-20T01:51:15.198Z,79.13
2019-05-20T01:52:15.188Z,79.43
2019-05-20T01:53:15.256Z,79.23
2019-05-20T01:54:15.166Z,79.33
2019-05-20T01:55:15.151Z,79.43
2019-05-20T01:56:15.137Z,79.23
2019-05-20T01:57:15.132Z,79.43
2019-05-20T01:58:15.133Z,79.33
2019-05-20T01:59:15.112Z,79.43
2019-05-20T02:00:15.098Z,79.23
2019-05-20T02:01:15.083Z,79.43
2019-05-20T02:02:15.079Z,79.43
2019-05-20T02:03:30.424Z,79.73
2019-05-20T02:04:16.051Z,79.33
2019-05-20T02:05:15.048Z,79.53
2019-05-20T02:06:15.033Z,79.13
2019-05-20T02:07:15.020Z,79.43
2019-05-20T02:08:15.010Z,80.04
2019-05-20T02:09:15.082Z,80.07
2019-05-20T02:10:14.985Z,79.87
2019-05-20T02:11:14.975Z,79.83
2019-05-20T02:12:14.968Z,80.27
2019-05-20T02:13:14.961Z,79.93
2019-05-20T02:14:14.953Z,80.27
2019-05-20T02:15:14.946Z,80.18
2019-05-20T02:16:14.923Z,80.38
2019-05-20T02:17:14.915Z,80.38
2019-05-20T02:18:14.899Z,80.78
2019-05-20T02:19:14.896Z,80.78
2019-05-20T02:20:14.961Z,80.88
2019-05-20T02:21:14.872Z,80.98
2019-05-20T02:22:14.859Z,81.28
2019-05-20T02:23:14.871Z,81.18
2019-05-20T02:24:14.851Z,81.08
2019-05-20T02:25:14.860Z,81.28
2019-05-20T02:26:14.921Z,81.42
2019-05-20T02:27:14.798Z,81.38
2019-05-20T02:28:14.788Z,81.68
2019-05-20T02:29:14.834Z,81.52
2019-05-20T02:30:14.773Z,81.32
2019-05-20T02:31:14.769Z,81.12
2019-05-20T02:32:14.828Z,81.52
2019-05-20T02:33:14.736Z,81.48
2019-05-20T02:34:14.727Z,81.52
2019-05-20T02:35:14.794Z,81.62
2019-05-20T02:36:14.809Z,81.62
2019-05-20T02:37:14.695Z,81.52
2019-05-20T02:38:14.677Z,81.93
2019-05-20T02:39:14.666Z,81.82
2019-05-20T02:40:14.659Z,82.03
2019-05-20T02:41:14.755Z,81.93
2019-05-20T02:42:14.634Z,81.93
2019-05-20T02:43:14.624Z,81.93
2019-05-20T02:44:14.612Z,82.03
2019-05-20T02:45:14.596Z,82.13
2019-05-20T02:46:14.626Z,82.03
2019-05-20T02:47:14.580Z,82.03
2019-05-20T02:48:14.587Z,82.03
2019-05-20T02:49:14.556Z,82.33
2019-05-20T02:50:14.542Z,82.23
2019-05-20T02:51:14.622Z,82.67
2019-05-20T02:52:14.521Z,82.57
2019-05-20T02:53:14.514Z,82.67
2019-05-20T02:54:14.499Z,82.27
2019-05-20T02:55:14.497Z,82.57
2019-05-20T02:56:14.473Z,82.78
2019-05-20T02:57:14.569Z,82.87
2019-05-20T02:58:14.450Z,82.57
2019-05-20T02:59:14.449Z,82.57
2019-05-20T03:00:14.436Z,82.47
2019-05-20T03:01:14.422Z,82.57
2019-05-20T03:02:14.403Z,82.47
2019-05-20T03:03:14.477Z,82.37
2019-05-20T03:04:14.389Z,82.07
2019-05-20T03:05:14.377Z,82.27
2019-05-20T03:06:14.416Z,82.37
2019-05-20T03:07:14.349Z,83.48
2019-05-20T03:08:14.452Z,83.38
2019-05-20T03:09:14.331Z,83.58
2019-05-20T03:10:14.322Z,83.28
2019-05-20T03:11:14.309Z,83.22
2019-05-20T03:12:14.297Z,83.32
2019-05-20T03:13:14.286Z,83.12
2019-05-20T03:14:14.376Z,83.82
2019-05-20T03:15:14.264Z,83.42
2019-05-20T03:16:15.690Z,83.82
2019-05-20T03:17:14.335Z,83.22
2019-05-20T03:18:14.225Z,83.22
2019-05-20T03:19:14.216Z,83.62
2019-05-20T03:20:14.209Z,83.72
2019-05-20T03:21:14.218Z,83.42
2019-05-20T03:22:14.187Z,83.62
2019-05-20T03:23:14.198Z,83.52
2019-05-20T03:24:14.161Z,83.52
2019-05-20T03:25:14.155Z,84.03
2019-05-20T03:26:14.144Z,84.12
2019-05-20T03:27:14.127Z,84.03
2019-05-20T03:28:14.202Z,83.72
2019-05-20T03:29:14.137Z,84.12
2019-05-20T03:30:14.204Z,83.92
2019-05-20T03:31:14.096Z,84.12
2019-05-20T03:32:14.074Z,83.42
2019-05-20T03:33:14.064Z,83.92
2019-05-20T03:34:42.067Z,84.33
2019-05-20T03:35:15.032Z,84.23
2019-05-20T03:36:14.041Z,83.92
2019-05-20T03:37:14.017Z,83.42
2019-05-20T03:38:14.007Z,83.32
2019-05-20T03:39:13.990Z,83.52
2019-05-20T03:40:13.994Z,83.92
2019-05-20T03:41:13.978Z,83.52
2019-05-20T03:42:13.959Z,84.23
2019-05-20T03:43:13.943Z,84.23
2019-05-20T03:44:13.940Z,83.92
2019-05-20T03:45:14.006Z,83.92
2019-05-20T03:46:13.921Z,83.92
2019-05-20T03:47:13.927Z,83.92
2019-05-20T03:48:13.896Z,83.52
2019-05-20T03:49:13.881Z,83.22
2019-05-20T03:50:13.916Z,83.22
2019-05-20T03:51:13.857Z,83.12
2019-05-20T03:52:13.850Z,83.12
2019-05-20T03:53:13.837Z,83.01
2019-05-20T03:54:13.823Z,82.91
2019-05-20T03:55:13.809Z,83.28
2019-05-20T03:56:13.884Z,83.42
2019-05-20T03:57:13.794Z,82.78
2019-05-20T03:58:14.155Z,82.10
2019-05-20T03:59:13.770Z,82.27
2019-05-20T04:00:13.753Z,82.27
2019-05-20T04:01:13.750Z,83.01
2019-05-20T04:02:13.818Z,82.98
2019-05-20T04:03:13.729Z,82.67
2019-05-20T04:04:13.731Z,82.10
2019-05-20T04:05:13.701Z,82.21
2019-05-20T04:06:13.691Z,82.47
2019-05-20T04:07:13.771Z,82.51
2019-05-20T04:08:13.665Z,82.51
2019-05-20T04:09:13.656Z,82.37
2019-05-20T04:10:13.725Z,82.27
2019-05-20T04:11:13.637Z,82.51
2019-05-20T04:12:13.705Z,82.47
2019-05-20T04:13:13.611Z,82.57
2019-05-20T04:14:13.603Z,82.67
2019-05-20T04:15:13.592Z,82.33
2019-05-20T04:16:13.661Z,82.47
2019-05-20T04:17:13.566Z,82.27
2019-05-20T04:18:13.557Z,82.37
2019-05-20T04:19:13.543Z,82.17
2019-05-20T04:20:13.537Z,81.96
2019-05-20T04:21:13.560Z,82.07
2019-05-20T04:22:13.559Z,81.96
2019-05-20T04:23:13.502Z,82.37
2019-05-20T04:24:13.487Z,82.07
2019-05-20T04:25:13.482Z,82.07
2019-05-20T04:26:13.470Z,82.17
2019-05-20T04:27:13.538Z,82.07
2019-05-20T04:28:13.448Z,81.82
2019-05-20T04:29:13.437Z,81.73
2019-05-20T04:30:13.425Z,81.52
2019-05-20T04:31:13.419Z,81.42
2019-05-20T04:32:13.410Z,81.02
2019-05-20T04:33:13.391Z,80.11
2019-05-20T04:34:13.379Z,80.41
2019-05-20T04:35:22.269Z,80.47
2019-05-20T04:36:14.353Z,80.27
2019-05-20T04:37:13.405Z,79.97
2019-05-20T04:38:13.331Z,80.07
2019-05-20T04:39:13.325Z,79.47
2019-05-20T04:40:13.320Z,78.96
2019-05-20T04:41:13.305Z,78.92
2019-05-20T04:42:13.294Z,78.72
2019-05-20T04:43:13.358Z,78.83
2019-05-20T04:44:13.268Z,78.72
2019-05-20T04:45:13.255Z,79.23
2019-05-20T04:46:13.250Z,79.13
2019-05-20T04:47:13.310Z,78.83
2019-05-20T04:48:14.029Z,78.28
2019-05-20T04:49:13.206Z,77.88
2019-05-20T04:50:13.306Z,77.78
2019-05-20T04:51:13.186Z,77.98
2019-05-20T04:52:13.174Z,77.88
2019-05-20T04:53:13.172Z,77.78
2019-05-20T04:54:13.150Z,77.98
2019-05-20T04:55:13.225Z,77.48
2019-05-20T04:56:13.134Z,77.28
2019-05-20T04:57:13.122Z,77.08
2019-05-20T04:58:13.113Z,77.58
2019-05-20T04:59:13.102Z,77.38
2019-05-20T05:00:13.132Z,77.17
2019-05-20T05:01:13.079Z,77.48
2019-05-20T05:02:13.071Z,77.48
2019-05-20T05:03:13.067Z,77.58
2019-05-20T05:04:13.044Z,77.48
2019-05-20T05:05:13.063Z,77.48
2019-05-20T05:06:13.021Z,76.97
2019-05-20T05:07:13.014Z,77.48
2019-05-20T05:08:13.007Z,77.68
2019-05-20T05:09:15.618Z,76.67
2019-05-20T05:10:13.078Z,76.17
2019-05-20T05:11:12.970Z,76.94
2019-05-20T05:12:12.981Z,76.34
2019-05-20T05:13:12.947Z,76.34
2019-05-20T05:14:12.941Z,76.37
2019-05-20T05:15:12.924Z,76.37
2019-05-20T05:16:12.920Z,76.47
2019-05-20T05:17:12.911Z,77.17
2019-05-20T05:18:12.895Z,77.17
2019-05-20T05:19:12.883Z,76.14
2019-05-20T05:20:17.891Z,76.43
2019-05-20T05:21:13.866Z,74.89
2019-05-20T05:22:12.846Z,75.39
2019-05-20T05:23:12.841Z,75.49
2019-05-20T05:24:12.822Z,74.85
2019-05-20T05:25:12.816Z,73.55
2019-05-20T05:26:12.811Z,74.21
2019-05-20T05:27:12.795Z,72.91
2019-05-20T05:28:12.805Z,72.30
2019-05-20T05:29:12.778Z,72.27
2019-05-20T05:30:12.765Z,72.27
2019-05-20T05:31:12.830Z,72.17
2019-05-20T05:32:12.852Z,71.87
2019-05-20T05:33:12.738Z,71.47
2019-05-20T05:34:12.767Z,70.96
2019-05-20T05:35:12.713Z,71.53
2019-05-20T05:36:12.697Z,70.93
2019-05-20T05:37:12.680Z,71.13
2019-05-20T05:38:12.869Z,71.03
2019-05-20T05:39:12.665Z,69.92
2019-05-20T05:40:12.688Z,70.03
2019-05-20T05:41:12.644Z,70.56
2019-05-20T05:42:12.624Z,70.83
2019-05-20T05:43:12.613Z,70.53
2019-05-20T05:44:12.617Z,70.43
2019-05-20T05:45:12.601Z,70.53
2019-05-20T05:46:12.591Z,70.23
2019-05-20T05:47:12.570Z,70.53
2019-05-20T05:48:12.575Z,70.43
2019-05-20T05:49:12.556Z,70.23
2019-05-20T05:50:12.541Z,70.73
2019-05-20T05:51:12.542Z,70.73
2019-05-20T05:52:12.519Z,69.92
2019-05-20T05:53:12.506Z,69.82
2019-05-20T05:54:12.607Z,69.29
2019-05-20T05:55:12.547Z,69.39
2019-05-20T05:56:12.474Z,69.39
2019-05-20T05:57:12.461Z,68.25
2019-05-20T05:58:12.455Z,67.92
2019-05-20T05:59:12.464Z,67.32
2019-05-20T06:00:12.440Z,66.68
2019-05-20T06:01:12.419Z,66.75
2019-05-20T06:02:12.429Z,65.75
2019-05-20T06:03:12.403Z,65.55
2019-05-20T06:04:12.392Z,65.55
2019-05-20T06:05:12.379Z,65.65
2019-05-20T06:06:13.427Z,65.65
2019-05-20T06:07:12.355Z,64.81
2019-05-20T06:08:12.343Z,65.31
2019-05-20T06:09:12.350Z,64.65
2019-05-20T06:10:12.339Z,64.95
2019-05-20T06:11:12.338Z,65.25
2019-05-20T06:12:12.298Z,65.85
2019-05-20T06:13:12.292Z,65.35
2019-05-20T06:14:12.281Z,65.22
2019-05-20T06:15:12.287Z,65.25
2019-05-20T06:16:12.265Z,65.25
2019-05-20T06:17:12.277Z,64.92
2019-05-20T06:18:12.230Z,64.72
2019-05-20T06:19:12.223Z,65.01
2019-05-20T06:20:12.216Z,64.48
2019-05-20T06:21:12.211Z,64.28
2019-05-20T06:22:14.469Z,64.55
2019-05-20T06:23:12.175Z,63.06
2019-05-20T06:24:12.164Z,63.56
2019-05-20T06:25:12.162Z,63.53
2019-05-20T06:26:13.207Z,62.70
2019-05-20T06:27:12.359Z,62.09
2019-05-20T06:28:12.130Z,61.26
2019-05-20T06:29:12.201Z,61.13
2019-05-20T06:30:12.122Z,60.44
2019-05-20T06:31:12.125Z,60.14
2019-05-20T06:32:12.084Z,60.00
2019-05-20T06:33:12.077Z,60.14
2019-05-20T06:34:12.120Z,60.03
2019-05-20T06:35:12.178Z,60.24
2019-05-20T06:36:25.911Z,59.08
2019-05-20T06:37:13.153Z,58.28
2019-05-20T06:38:12.307Z,59.18
2019-05-20T06:39:12.105Z,58.58
2019-05-20T06:40:12.068Z,58.28
2019-05-20T06:41:12.177Z,58.48
2019-05-20T06:42:12.228Z,57.78
2019-05-20T06:43:11.963Z,57.95
2019-05-20T06:44:12.001Z,57.95
2019-05-20T06:45:11.950Z,58.06
2019-05-20T06:46:11.979Z,56.93
2019-05-20T06:47:11.929Z,57.56
2019-05-20T06:48:11.998Z,57.65
2019-05-20T06:49:12.005Z,57.86
2019-05-20T06:50:11.893Z,57.93
2019-05-20T06:51:11.877Z,57.73
2019-05-20T06:52:12.028Z,56.30
2019-05-20T06:53:11.907Z,56.60
2019-05-20T06:54:11.834Z,56.57
2019-05-20T06:55:11.885Z,55.65
2019-05-20T06:56:11.843Z,55.16
2019-05-20T06:57:11.814Z,54.46
2019-05-20T06:58:11.816Z,55.35
2019-05-20T06:59:11.783Z,54.36
2019-05-20T07:00:11.797Z,54.36
2019-05-20T07:01:11.762Z,55.05
2019-05-20T07:02:11.763Z,54.63
2019-05-20T07:03:11.741Z,54.73
2019-05-20T07:04:11.782Z,54.73
2019-05-20T07:05:11.714Z,54.83
2019-05-20T07:06:11.713Z,53.83
2019-05-20T07:07:20.373Z,54.33
2019-05-20T07:08:12.690Z,54.53
2019-05-20T07:09:11.685Z,53.81
2019-05-20T07:10:11.666Z,54.90
2019-05-20T07:11:11.649Z,53.31
2019-05-20T07:12:11.639Z,53.31
2019-05-20T07:13:11.638Z,53.69
2019-05-20T07:14:11.704Z,53.28
2019-05-20T07:15:11.614Z,52.49
2019-05-20T07:16:11.609Z,52.69
2019-05-20T07:17:11.594Z,52.69
2019-05-20T07:18:11.610Z,52.79
2019-05-20T07:19:11.652Z,52.17
2019-05-20T07:20:11.595Z,51.28
2019-05-20T07:21:11.548Z,50.75
2019-05-20T07:22:11.535Z,50.35
2019-05-20T07:23:11.525Z,50.03
2019-05-20T07:24:11.513Z,50.23
2019-05-20T07:25:11.589Z,50.63
2019-05-20T07:26:11.490Z,50.33
2019-05-20T07:27:11.503Z,50.43
2019-05-20T07:28:11.486Z,50.13
2019-05-20T07:29:11.462Z,50.23
2019-05-20T07:30:15.065Z,50.23
2019-05-20T07:31:11.545Z,49.84
2019-05-20T07:32:11.471Z,50.31
2019-05-20T07:33:11.413Z,48.80
2019-05-20T07:34:11.405Z,48.69
2019-05-20T07:35:28.202Z,49.39
2019-05-20T07:36:12.429Z,48.97
2019-05-20T07:37:11.381Z,49.19
2019-05-20T07:38:11.395Z,48.30
2019-05-20T07:39:11.360Z,48.27
2019-05-20T07:40:11.339Z,48.08
2019-05-20T07:41:11.330Z,47.88
2019-05-20T07:42:11.333Z,48.08
2019-05-20T07:43:11.311Z,48.20
2019-05-20T07:44:11.349Z,48.90
2019-05-20T07:45:11.299Z,47.90
2019-05-20T07:46:11.277Z,48.47
2019-05-20T07:47:11.463Z,48.47
2019-05-20T07:48:11.255Z,48.27
2019-05-20T07:49:11.481Z,48.05
2019-05-20T07:50:11.234Z,47.38
2019-05-20T07:51:11.225Z,47.78
2019-05-20T07:52:11.248Z,48.38
2019-05-20T07:53:11.286Z,48.67
2019-05-20T07:54:11.229Z,48.15
2019-05-20T07:55:11.184Z,48.65
2019-05-20T07:56:11.168Z,47.96
2019-05-20T07:57:11.163Z,48.25
2019-05-20T07:58:11.230Z,48.03
2019-05-20T07:59:11.137Z,47.63
2019-05-20T08:00:11.138Z,47.74
2019-05-20T08:01:11.123Z,46.72
2019-05-20T08:02:11.101Z,46.80
2019-05-20T08:03:11.097Z,46.33
2019-05-20T08:04:11.139Z,46.82
2019-05-20T08:05:11.073Z,46.72
2019-05-20T08:06:11.068Z,46.62
2019-05-20T08:07:26.655Z,46.03
2019-05-20T08:08:12.036Z,46.30
2019-05-20T08:09:11.035Z,45.90
2019-05-20T08:10:11.021Z,46.18
2019-05-20T08:11:11.125Z,45.29
2019-05-20T08:12:11.013Z,45.96
2019-05-20T08:13:11.081Z,45.29
2019-05-20T08:14:10.978Z,45.37
2019-05-20T08:15:10.968Z,44.90
2019-05-20T08:16:10.952Z,44.78
2019-05-20T08:17:11.032Z,45.00
2019-05-20T08:18:10.939Z,45.98
2019-05-20T08:19:11.033Z,44.60
2019-05-20T08:20:10.929Z,44.97
2019-05-20T08:21:10.907Z,44.06
2019-05-20T08:22:10.896Z,44.06
2019-05-20T08:23:10.882Z,43.87
2019-05-20T08:24:10.877Z,43.37
2019-05-20T08:25:10.943Z,42.56
2019-05-20T08:26:10.850Z,42.54
2019-05-20T08:27:10.839Z,42.22
2019-05-20T08:28:10.824Z,42.00
2019-05-20T08:29:10.814Z,42.10
2019-05-20T08:30:14.033Z,41.61
2019-05-20T08:31:10.818Z,41.91
2019-05-20T08:32:10.788Z,41.61
2019-05-20T08:33:10.771Z,41.89
2019-05-20T08:34:10.760Z,41.59
2019-05-20T08:35:10.851Z,41.39
2019-05-20T08:36:10.823Z,40.78
2019-05-20T08:37:10.736Z,40.37
2019-05-20T08:38:10.720Z,40.17
2019-05-20T08:39:10.710Z,40.37
2019-05-20T08:40:10.709Z,40.66
2019-05-20T08:41:10.804Z,39.39
2019-05-20T08:42:10.685Z,39.76
2019-05-20T08:43:10.679Z,39.95
2019-05-20T08:44:10.661Z,38.85
2019-05-20T08:45:10.649Z,38.44
2019-05-20T08:46:10.644Z,38.32
2019-05-20T08:47:10.642Z,37.93
2019-05-20T08:48:10.625Z,37.63
2019-05-20T08:49:11.662Z,37.74
2019-05-20T08:50:15.631Z,37.21
2019-05-20T08:51:11.584Z,37.50
2019-05-20T08:52:10.632Z,37.23
2019-05-20T08:53:10.572Z,37.42
2019-05-20T08:54:10.569Z,37.84
2019-05-20T08:55:10.548Z,38.78
2019-05-20T08:56:10.544Z,38.97
2019-05-20T08:57:10.537Z,38.46
2019-05-20T08:58:10.539Z,38.05
2019-05-20T08:59:10.505Z,38.52
2019-05-20T09:00:10.497Z,37.95
2019-05-20T09:01:12.240Z,38.56
2019-05-20T09:02:10.479Z,38.78
2019-05-20T09:03:10.468Z,39.07
2019-05-20T09:04:10.467Z,39.07
2019-05-20T09:05:10.444Z,38.26
2019-05-20T09:06:10.441Z,37.05
2019-05-20T09:07:10.433Z,37.15
2019-05-20T09:08:10.499Z,37.32
2019-05-20T09:09:12.287Z,35.83
2019-05-20T09:10:10.402Z,35.91
2019-05-20T09:11:10.467Z,36.40
2019-05-20T09:12:10.389Z,36.30
2019-05-20T09:13:10.481Z,35.52
2019-05-20T09:14:10.362Z,34.52
2019-05-20T09:15:10.349Z,34.42
2019-05-20T09:16:10.341Z,33.72
2019-05-20T09:17:10.335Z,33.43
2019-05-20T09:18:10.325Z,33.43
2019-05-20T09:19:10.324Z,33.51
2019-05-20T09:20:10.338Z,33.54
2019-05-20T09:21:10.754Z,33.77
2019-05-20T09:22:10.283Z,35.06
2019-05-20T09:23:10.303Z,34.67
2019-05-20T09:24:10.400Z,34.46
2019-05-20T09:25:10.635Z,33.38
2019-05-20T09:26:10.247Z,32.30
2019-05-20T09:27:10.250Z,32.57
2019-05-20T09:28:10.229Z,32.38
2019-05-20T09:29:11.437Z,32.18
2019-05-20T09:30:10.287Z,32.98
2019-05-20T09:31:10.195Z,32.59
2019-05-20T09:32:10.198Z,32.50
2019-05-20T09:33:10.181Z,33.77
2019-05-20T09:34:10.173Z,33.61
2019-05-20T09:35:10.173Z,33.61
2019-05-20T09:36:10.233Z,33.29
2019-05-20T09:37:10.140Z,33.61
2019-05-20T09:38:19.534Z,33.17
2019-05-20T09:39:11.206Z,31.27
2019-05-20T09:40:10.122Z,31.65
2019-05-20T09:41:10.146Z,30.65
2019-05-20T09:42:10.147Z,30.18
2019-05-20T09:43:10.087Z,31.03
2019-05-20T09:44:10.079Z,30.43
2019-05-20T09:45:10.067Z,29.73
2019-05-20T09:46:10.058Z,28.74
2019-05-20T09:47:10.130Z,29.32
2019-05-20T09:48:10.036Z,28.04
2019-05-20T09:49:10.032Z,28.92
2019-05-20T09:50:10.022Z,28.72
2019-05-20T09:51:10.040Z,28.32
2019-05-20T09:52:10.025Z,28.52
2019-05-20T09:53:09.998Z,28.59
2019-05-20T09:54:09.984Z,28.50
2019-05-20T09:55:09.976Z,28.42
2019-05-20T09:56:09.983Z,28.65
2019-05-20T09:57:10.025Z,29.56
2019-05-20T09:58:09.956Z,29.46
2019-05-20T09:59:09.941Z,28.94
2019-05-20T10:00:09.930Z,29.13
2019-05-20T10:01:09.924Z,27.84
2019-05-20T10:02:10.021Z,27.44
2019-05-20T10:03:09.902Z,28.01
2019-05-20T10:04:09.900Z,27.81
2019-05-20T10:05:09.885Z,27.64
2019-05-20T10:06:09.892Z,28.03
2019-05-20T10:07:09.968Z,28.91
2019-05-20T10:08:09.866Z,27.62
2019-05-20T10:09:09.857Z,27.02
2019-05-20T10:10:09.840Z,27.23
2019-05-20T10:11:09.837Z,27.72
2019-05-20T10:12:09.849Z,26.84
2019-05-20T10:13:09.856Z,26.93
2019-05-20T10:14:09.810Z,27.81
2019-05-20T10:15:09.796Z,26.34
2019-05-20T10:16:09.790Z,26.52
2019-05-20T10:17:09.780Z,27.13
2019-05-20T10:18:09.852Z,27.73
2019-05-20T10:19:09.759Z,27.16
2019-05-20T10:20:09.860Z,28.74
2019-05-20T10:21:09.743Z,28.88
2019-05-20T10:22:09.734Z,30.11
2019-05-20T10:23:09.738Z,31.81
2019-05-20T10:24:09.709Z,32.43
2019-05-20T10:25:09.706Z,32.64
2019-05-20T10:26:09.777Z,32.65
2019-05-20T10:27:09.690Z,33.25
2019-05-20T10:28:09.690Z,33.56
2019-05-20T10:29:09.676Z,33.46
2019-05-20T10:30:09.659Z,33.15
2019-05-20T10:31:09.716Z,34.43
2019-05-20T10:32:09.632Z,34.03
2019-05-20T10:33:10.707Z,34.25
2019-05-20T10:34:09.624Z,35.53
2019-05-20T10:35:09.683Z,35.64
2019-05-20T10:36:09.730Z,35.94
2019-05-20T10:37:09.580Z,36.23
2019-05-20T10:38:09.578Z,35.63
2019-05-20T10:39:09.569Z,34.01
2019-05-20T10:40:09.663Z,33.10
2019-05-20T10:41:09.546Z,32.40
2019-05-20T10:42:09.610Z,33.29
2019-05-20T10:43:09.526Z,34.00
2019-05-20T10:44:09.515Z,33.82
2019-05-20T10:45:09.590Z,34.92
2019-05-20T10:46:09.496Z,35.53
2019-05-20T10:47:09.483Z,35.96
2019-05-20T10:48:09.474Z,36.35
2019-05-20T10:49:09.467Z,36.98
2019-05-20T10:50:09.465Z,37.27
2019-05-20T10:51:10.451Z,37.59
2019-05-20T10:52:09.439Z,37.39
2019-05-20T10:53:09.418Z,37.78
2019-05-20T10:54:09.412Z,36.98
2019-05-20T10:55:09.403Z,36.07
2019-05-20T10:56:09.619Z,36.04
2019-05-20T10:57:09.488Z,35.21
2019-05-20T10:58:09.369Z,35.02
2019-05-20T10:59:11.918Z,35.13
2019-05-20T11:00:09.353Z,35.54
2019-05-20T11:01:09.333Z,36.45
2019-05-20T11:02:09.407Z,37.35
2019-05-20T11:03:09.318Z,37.66
2019-05-20T11:04:09.308Z,36.99
2019-05-20T11:05:09.377Z,38.10
2019-05-20T11:06:09.292Z,38.21
2019-05-20T11:07:09.361Z,38.12
2019-05-20T11:08:09.346Z,38.41
2019-05-20T11:09:14.037Z,39.30
2019-05-20T11:10:10.251Z,39.12
2019-05-20T11:11:13.874Z,38.82
2019-05-20T11:12:10.240Z,39.81
2019-05-20T11:13:09.220Z,39.62
2019-05-20T11:14:09.359Z,40.03
2019-05-20T11:15:09.195Z,39.43
2019-05-20T11:16:09.202Z,39.65
2019-05-20T11:17:09.202Z,39.36
2019-05-20T11:18:09.227Z,40.17
2019-05-20T11:19:09.151Z,40.19
2019-05-20T11:20:09.244Z,41.18
2019-05-20T11:21:09.127Z,41.89
2019-05-20T11:22:09.158Z,42.19
2019-05-20T11:23:09.107Z,41.69
2019-05-20T11:24:09.161Z,41.20
2019-05-20T11:25:09.083Z,41.89
2019-05-20T11:26:09.075Z,42.29
2019-05-20T11:27:09.060Z,42.09
2019-05-20T11:28:11.795Z,41.69
2019-05-20T11:29:09.045Z,42.09
2019-05-20T11:30:09.111Z,41.69
2019-05-20T11:31:09.021Z,42.09
2019-05-20T11:32:09.011Z,41.99
2019-05-20T11:33:08.996Z,42.29
2019-05-20T11:34:09.002Z,42.38
2019-05-20T11:35:08.982Z,42.58
2019-05-20T11:36:09.046Z,42.31
2019-05-20T11:37:08.954Z,43.00
2019-05-20T11:38:08.943Z,42.80
2019-05-20T11:39:08.952Z,42.71
2019-05-20T11:40:09.503Z,42.71
2019-05-20T11:41:08.993Z,42.11
2019-05-20T11:42:08.898Z,42.88
2019-05-20T11:43:08.887Z,42.88
2019-05-20T11:44:11.825Z,42.58
2019-05-20T11:45:08.960Z,43.20
2019-05-20T11:46:08.941Z,42.90
2019-05-20T11:47:08.851Z,42.71
2019-05-20T11:48:08.841Z,41.89
2019-05-20T11:49:08.828Z,41.89
2019-05-20T11:50:08.845Z,42.27
2019-05-20T11:51:08.890Z,42.38
2019-05-20T11:52:08.795Z,42.58
2019-05-20T11:53:08.822Z,42.68
2019-05-20T11:54:08.790Z,41.79
2019-05-20T11:55:08.765Z,42.88
2019-05-20T11:56:11.919Z,42.09
2019-05-20T11:57:08.831Z,42.78
2019-05-20T11:58:15.796Z,42.88
2019-05-20T11:59:09.715Z,42.11
2019-05-20T12:00:08.703Z,42.38
2019-05-20T12:01:08.691Z,42.09
2019-05-20T12:02:08.776Z,41.89
2019-05-20T12:03:08.672Z,42.38
2019-05-20T12:04:08.663Z,42.60
2019-05-20T12:05:08.675Z,42.21
2019-05-20T12:06:08.667Z,42.90
2019-05-20T12:07:08.823Z,43.30
2019-05-20T12:08:08.624Z,42.90
2019-05-20T12:09:08.635Z,42.90
2019-05-20T12:10:08.606Z,43.70
2019-05-20T12:11:08.600Z,43.79
2019-05-20T12:12:08.588Z,43.20
2019-05-20T12:13:08.649Z,43.89
2019-05-20T12:14:08.558Z,43.79
2019-05-20T12:15:08.748Z,43.70
2019-05-20T12:16:08.536Z,43.30
2019-05-20T12:17:08.521Z,43.10
2019-05-20T12:18:08.598Z,42.88
2019-05-20T12:19:08.505Z,43.08
2019-05-20T12:20:10.901Z,42.96
2019-05-20T12:21:08.483Z,42.86
2019-05-20T12:22:08.474Z,42.66
2019-05-20T12:23:08.549Z,42.84
2019-05-20T12:24:08.445Z,42.57
2019-05-20T12:25:08.451Z,42.86
2019-05-20T12:26:08.431Z,43.75
2019-05-20T12:27:08.428Z,43.65
2019-05-20T12:28:08.421Z,43.77
2019-05-20T12:29:08.492Z,44.39
2019-05-20T12:30:08.396Z,44.68
2019-05-20T12:31:08.380Z,44.19
2019-05-20T12:32:08.360Z,44.89
2019-05-20T12:33:18.636Z,44.68
2019-05-20T12:34:09.424Z,44.49
2019-05-20T12:35:08.344Z,44.29
2019-05-20T12:36:08.319Z,43.60
2019-05-20T12:37:08.308Z,44.09
2019-05-20T12:38:08.297Z,43.87
2019-05-20T12:39:08.305Z,44.67
2019-05-20T12:40:08.840Z,44.17
2019-05-20T12:41:08.273Z,44.76
2019-05-20T12:42:08.252Z,44.74
2019-05-20T12:43:08.243Z,45.06
2019-05-20T12:44:12.582Z,45.16
2019-05-20T12:45:08.224Z,45.06
2019-05-20T12:46:08.220Z,45.06
2019-05-20T12:47:08.218Z,45.87
2019-05-20T12:48:08.205Z,46.37
2019-05-20T12:49:08.335Z,45.87
2019-05-20T12:50:08.186Z,45.68
2019-05-20T12:51:08.156Z,45.48
2019-05-20T12:52:08.206Z,45.97